createdAt,value
2022-08-16T00:00:03.614Z,80.71
2022-08-16T00:00:55.463Z,80.61
2022-08-16T00:01:55.500Z,80.61
2022-08-16T00:02:55.470Z,80.71
2022-08-16T00:03:55.471Z,80.71
2022-08-16T00:04:55.476Z,81.51
2022-08-16T00:05:57.442Z,80.97
2022-08-16T00:06:55.481Z,81.41
2022-08-16T00:07:56.332Z,81.01
2022-08-16T00:08:55.488Z,80.77
2022-08-16T00:09:55.504Z,80.91
2022-08-16T00:10:55.496Z,81.27
2022-08-16T00:11:55.577Z,81.30
2022-08-16T00:12:55.508Z,81.41
2022-08-16T00:13:55.808Z,80.91
2022-08-16T00:14:56.700Z,81.30
2022-08-16T00:15:55.512Z,81.17
2022-08-16T00:17:06.250Z,80.71
2022-08-16T00:17:56.972Z,80.91
2022-08-16T00:18:55.516Z,80.07
2022-08-16T00:19:55.521Z,80.21
2022-08-16T00:20:55.523Z,80.91
2022-08-16T00:22:01.637Z,80.51
2022-08-16T00:22:55.529Z,80.41
2022-08-16T00:23:55.535Z,80.36
2022-08-16T00:24:55.537Z,80.47
2022-08-16T00:26:35.652Z,80.67
2022-08-16T00:26:55.543Z,80.67
2022-08-16T00:27:55.568Z,80.57
2022-08-16T00:28:55.549Z,79.77
2022-08-16T00:30:08.700Z,80.17
2022-08-16T00:30:55.554Z,80.07
2022-08-16T00:31:59.720Z,80.07
2022-08-16T00:32:57.225Z,79.86
2022-08-16T00:33:55.567Z,79.77
2022-08-16T00:34:55.572Z,80.07
2022-08-16T00:35:55.572Z,79.27
2022-08-16T00:36:55.977Z,79.57
2022-08-16T00:37:58.920Z,80.07
2022-08-16T00:38:56.314Z,79.86
2022-08-16T00:39:57.631Z,79.86
2022-08-16T00:40:55.663Z,79.97
2022-08-16T00:41:55.590Z,80.36
2022-08-16T00:42:55.595Z,80.07
2022-08-16T00:43:55.597Z,80.27
2022-08-16T00:44:55.599Z,79.77
2022-08-16T00:46:00.027Z,79.53
2022-08-16T00:47:06.285Z,79.93
2022-08-16T00:47:55.651Z,79.83
2022-08-16T00:48:55.611Z,79.83
2022-08-16T00:49:56.483Z,79.53
2022-08-16T00:50:55.694Z,79.43
2022-08-16T00:51:55.779Z,79.53
2022-08-16T00:52:55.942Z,79.53
2022-08-16T00:53:55.630Z,79.53
2022-08-16T00:54:55.632Z,79.43
2022-08-16T00:55:55.641Z,79.33
2022-08-16T00:56:56.529Z,79.33
2022-08-16T00:58:00.190Z,79.33
2022-08-16T00:58:55.646Z,79.13
2022-08-16T00:59:59.694Z,79.03
2022-08-16T01:00:55.672Z,79.43
2022-08-16T01:01:55.657Z,79.33
2022-08-16T01:02:55.659Z,78.73
2022-08-16T01:03:55.663Z,79.33
2022-08-16T01:05:09.484Z,78.73
2022-08-16T01:05:55.669Z,78.93
2022-08-16T01:07:01.770Z,78.93
2022-08-16T01:07:55.673Z,79.06
2022-08-16T01:08:55.681Z,78.67
2022-08-16T01:09:55.681Z,78.56
2022-08-16T01:10:55.688Z,78.56
2022-08-16T01:11:55.687Z,78.97
2022-08-16T01:12:55.699Z,78.86
2022-08-16T01:13:55.693Z,78.97
2022-08-16T01:14:55.952Z,78.77
2022-08-16T01:15:55.700Z,78.97
2022-08-16T01:16:55.701Z,78.77
2022-08-16T01:17:56.116Z,78.77
2022-08-16T01:18:55.708Z,78.77
2022-08-16T01:19:57.004Z,78.67
2022-08-16T01:20:55.713Z,78.67
2022-08-16T01:21:55.718Z,78.67
2022-08-16T01:22:55.990Z,78.47
2022-08-16T01:23:58.569Z,78.77
2022-08-16T01:24:55.881Z,79.06
2022-08-16T01:25:59.757Z,79.36
2022-08-16T01:26:55.733Z,78.97
2022-08-16T01:27:55.739Z,79.27
2022-08-16T01:28:55.740Z,78.86
2022-08-16T01:29:58.211Z,79.17
2022-08-16T01:30:55.747Z,78.86
2022-08-16T01:31:55.749Z,78.97
2022-08-16T01:33:01.233Z,78.77
2022-08-16T01:33:55.766Z,78.77
2022-08-16T01:34:56.958Z,78.47
2022-08-16T01:35:56.245Z,78.97
2022-08-16T01:36:58.450Z,78.97
2022-08-16T01:37:55.784Z,79.06
2022-08-16T01:38:57.381Z,79.36
2022-08-16T01:39:55.820Z,79.27
2022-08-16T01:40:55.777Z,79.36
2022-08-16T01:41:55.785Z,79.57
2022-08-16T01:42:55.786Z,79.17
2022-08-16T01:43:55.790Z,79.27
2022-08-16T01:44:55.791Z,79.57
2022-08-16T01:45:57.755Z,79.21
2022-08-16T01:46:55.798Z,79.00
2022-08-16T01:47:55.801Z,78.80
2022-08-16T01:48:55.804Z,79.41
2022-08-16T01:50:42.033Z,79.21
2022-08-16T01:51:09.668Z,79.30
2022-08-16T01:51:55.817Z,79.06
2022-08-16T01:52:55.815Z,79.10
2022-08-16T01:53:56.092Z,79.41
2022-08-16T01:54:55.822Z,79.21
2022-08-16T01:55:55.826Z,79.30
2022-08-16T01:56:55.829Z,79.00
2022-08-16T01:57:56.473Z,79.41
2022-08-16T01:58:55.841Z,79.10
2022-08-16T01:59:55.842Z,79.21
2022-08-16T02:00:55.843Z,79.41
2022-08-16T02:01:59.600Z,79.10
2022-08-16T02:02:55.847Z,79.17
2022-08-16T02:03:58.368Z,79.41
2022-08-16T02:04:55.859Z,79.36
2022-08-16T02:05:55.861Z,79.21
2022-08-16T02:06:55.860Z,78.70
2022-08-16T02:07:55.865Z,79.21
2022-08-16T02:08:55.869Z,79.00
2022-08-16T02:09:58.813Z,79.21
2022-08-16T02:10:55.875Z,79.21
2022-08-16T02:11:55.877Z,79.30
2022-08-16T02:13:00.523Z,79.00
2022-08-16T02:13:55.884Z,79.30
2022-08-16T02:14:56.339Z,78.91
2022-08-16T02:15:55.887Z,79.00
2022-08-16T02:16:56.272Z,79.10
2022-08-16T02:17:55.898Z,78.80
2022-08-16T02:18:55.902Z,79.00
2022-08-16T02:19:59.920Z,78.60
2022-08-16T02:20:55.905Z,78.80
2022-08-16T02:22:08.768Z,79.10
2022-08-16T02:22:55.911Z,78.84
2022-08-16T02:23:55.914Z,79.21
2022-08-16T02:24:55.920Z,78.80
2022-08-16T02:25:55.921Z,78.80
2022-08-16T02:26:55.922Z,78.70
2022-08-16T02:27:55.926Z,78.20
2022-08-16T02:28:55.926Z,77.70
2022-08-16T02:30:04.964Z,77.80
2022-08-16T02:30:55.939Z,77.91
2022-08-16T02:32:03.470Z,78.00
2022-08-16T02:32:55.951Z,78.10
2022-08-16T02:33:55.973Z,78.80
2022-08-16T02:34:56.464Z,78.91
2022-08-16T02:35:58.387Z,78.91
2022-08-16T02:36:55.955Z,78.94
2022-08-16T02:37:56.288Z,78.74
2022-08-16T02:38:55.959Z,78.60
2022-08-16T02:39:55.997Z,78.34
2022-08-16T02:40:55.977Z,78.44
2022-08-16T02:41:55.969Z,78.84
2022-08-16T02:42:55.975Z,78.94
2022-08-16T02:43:55.978Z,78.41
2022-08-16T02:44:55.977Z,78.80
2022-08-16T02:45:56.299Z,79.00
2022-08-16T02:46:55.985Z,78.54
2022-08-16T02:48:01.867Z,78.84
2022-08-16T02:48:55.988Z,78.84
2022-08-16T02:50:52.925Z,78.74
2022-08-16T02:51:10.414Z,78.84
2022-08-16T02:51:56.000Z,78.54
2022-08-16T02:52:56.003Z,78.94
2022-08-16T02:53:56.535Z,78.64
2022-08-16T02:54:56.015Z,78.41
2022-08-16T02:55:56.012Z,78.44
2022-08-16T02:56:56.014Z,78.44
2022-08-16T02:57:56.019Z,78.44
2022-08-16T02:58:56.019Z,78.64
2022-08-16T02:59:56.024Z,78.44
2022-08-16T03:00:57.298Z,78.04
2022-08-16T03:01:56.060Z,78.44
2022-08-16T03:02:56.418Z,78.64
2022-08-16T03:04:39.406Z,77.94
2022-08-16T03:04:56.036Z,78.00
2022-08-16T03:05:56.045Z,78.04
2022-08-16T03:06:56.755Z,78.04
2022-08-16T03:07:56.045Z,78.34
2022-08-16T03:08:56.049Z,78.44
2022-08-16T03:09:56.054Z,78.64
2022-08-16T03:10:56.055Z,78.44
2022-08-16T03:11:56.061Z,78.44
2022-08-16T03:12:56.771Z,78.34
2022-08-16T03:13:56.696Z,78.24
2022-08-16T03:14:56.066Z,78.14
2022-08-16T03:15:56.072Z,78.04
2022-08-16T03:16:59.706Z,78.04
2022-08-16T03:17:56.076Z,77.64
2022-08-16T03:18:56.078Z,77.34
2022-08-16T03:19:59.556Z,77.67
2022-08-16T03:20:56.108Z,77.48
2022-08-16T03:21:56.092Z,77.58
2022-08-16T03:22:56.597Z,78.18
2022-08-16T03:23:56.098Z,78.02
2022-08-16T03:24:57.631Z,78.72
2022-08-16T03:25:56.111Z,78.72
2022-08-16T03:26:57.799Z,79.32
2022-08-16T03:27:56.106Z,79.42
2022-08-16T03:28:56.107Z,79.25
2022-08-16T03:29:56.111Z,79.16
2022-08-16T03:30:56.113Z,79.25
2022-08-16T03:31:56.118Z,79.66
2022-08-16T03:32:56.119Z,79.12
2022-08-16T03:33:56.124Z,79.75
2022-08-16T03:34:56.124Z,79.22
2022-08-16T03:35:57.205Z,78.85
2022-08-16T03:36:56.127Z,79.16
2022-08-16T03:38:02.805Z,79.05
2022-08-16T03:38:56.154Z,79.42
2022-08-16T03:39:56.444Z,79.05
2022-08-16T03:40:56.155Z,79.25
2022-08-16T03:41:59.660Z,79.36
2022-08-16T03:43:19.319Z,79.55
2022-08-16T03:43:56.150Z,79.25
2022-08-16T03:45:03.390Z,79.16
2022-08-16T03:45:56.154Z,78.96
2022-08-16T03:46:56.157Z,79.16
2022-08-16T03:47:58.296Z,78.96
2022-08-16T03:48:56.160Z,79.16
2022-08-16T03:49:56.173Z,79.05
2022-08-16T03:50:59.918Z,78.96
2022-08-16T03:51:56.167Z,79.05
2022-08-16T03:53:01.320Z,78.85
2022-08-16T03:54:01.047Z,79.16
2022-08-16T03:54:59.500Z,78.85
2022-08-16T03:55:56.184Z,79.55
2022-08-16T03:56:56.642Z,78.96
2022-08-16T03:57:56.187Z,78.89
2022-08-16T03:58:56.220Z,79.19
2022-08-16T03:59:56.197Z,79.49
2022-08-16T04:00:59.128Z,79.60
2022-08-16T04:01:56.196Z,80.19
2022-08-16T04:02:56.207Z,80.04
2022-08-16T04:03:56.200Z,80.43
2022-08-16T04:04:56.204Z,80.43
2022-08-16T04:05:56.218Z,80.63
2022-08-16T04:06:56.213Z,80.74
2022-08-16T04:07:56.222Z,80.98
2022-08-16T04:08:56.213Z,81.38
2022-08-16T04:09:56.229Z,80.68
2022-08-16T04:10:58.022Z,80.47
2022-08-16T04:11:56.224Z,80.71
2022-08-16T04:13:00.582Z,81.32
2022-08-16T04:13:59.961Z,81.92
2022-08-16T04:14:56.229Z,81.21
2022-08-16T04:15:56.228Z,81.62
2022-08-16T04:16:56.238Z,82.22
2022-08-16T04:17:56.238Z,82.26
2022-08-16T04:19:02.794Z,82.22
2022-08-16T04:19:58.490Z,82.22
2022-08-16T04:20:56.360Z,82.06
2022-08-16T04:21:56.829Z,80.81
2022-08-16T04:22:56.258Z,81.96
2022-08-16T04:23:56.250Z,82.36
2022-08-16T04:24:59.384Z,82.66
2022-08-16T04:25:56.258Z,82.16
2022-08-16T04:26:56.261Z,82.26
2022-08-16T04:27:56.268Z,82.97
2022-08-16T04:29:17.221Z,83.17
2022-08-16T04:30:03.013Z,83.97
2022-08-16T04:30:56.266Z,82.82
2022-08-16T04:31:58.016Z,83.83
2022-08-16T04:32:56.278Z,83.12
2022-08-16T04:33:56.273Z,82.32
2022-08-16T04:34:56.275Z,82.12
2022-08-16T04:35:56.277Z,81.92
2022-08-16T04:36:56.525Z,80.27
2022-08-16T04:37:56.286Z,81.18
2022-08-16T04:38:56.292Z,80.77
2022-08-16T04:39:57.279Z,80.37
2022-08-16T04:40:56.290Z,80.88
2022-08-16T04:41:56.808Z,80.77
2022-08-16T04:42:56.298Z,80.27
2022-08-16T04:43:56.302Z,81.07
2022-08-16T04:44:56.343Z,81.12
2022-08-16T04:47:40.039Z,81.82
2022-08-16T04:48:40.046Z,82.02
2022-08-16T04:49:45.495Z,82.56
2022-08-16T04:50:43.460Z,82.52
2022-08-16T04:51:40.050Z,82.12
2022-08-16T04:52:40.055Z,82.22
2022-08-16T04:53:41.334Z,82.62
2022-08-16T04:54:40.063Z,82.32
2022-08-16T04:55:40.063Z,81.26
2022-08-16T04:56:42.902Z,81.52
2022-08-16T04:57:41.326Z,82.06
2022-08-16T04:58:45.787Z,82.26
2022-08-16T04:59:40.069Z,82.76
2022-08-16T05:00:40.073Z,82.97
2022-08-16T05:01:59.055Z,83.17
2022-08-16T05:02:54.841Z,83.97
2022-08-16T05:03:41.902Z,83.76
2022-08-16T05:04:40.082Z,83.87
2022-08-16T05:05:45.531Z,83.83
2022-08-16T05:06:42.165Z,83.93
2022-08-16T05:07:40.086Z,83.23
2022-08-16T05:08:40.090Z,82.82
2022-08-16T05:09:40.088Z,83.93
2022-08-16T05:10:40.093Z,82.82
2022-08-16T05:11:40.095Z,82.72
2022-08-16T05:12:40.097Z,82.68
2022-08-16T05:13:42.409Z,83.12
2022-08-16T05:14:46.131Z,82.98
2022-08-16T05:15:40.103Z,83.89
2022-08-16T05:16:40.108Z,82.98
2022-08-16T05:17:40.112Z,82.48
2022-08-16T05:18:40.112Z,82.78
2022-08-16T05:19:40.113Z,82.68
2022-08-16T05:20:54.015Z,82.78
2022-08-16T05:21:40.117Z,82.28
2022-08-16T05:22:40.170Z,82.58
2022-08-16T05:23:40.122Z,82.98
2022-08-16T05:24:40.125Z,82.89
2022-08-16T05:25:41.214Z,83.18
2022-08-16T05:26:40.889Z,82.98
2022-08-16T05:27:42.932Z,83.29
2022-08-16T05:28:40.135Z,83.89
2022-08-16T05:29:56.899Z,84.09
2022-08-16T05:30:40.136Z,82.98
2022-08-16T05:31:48.130Z,83.09
2022-08-16T05:32:45.608Z,83.04
2022-08-16T05:33:42.149Z,82.95
2022-08-16T05:34:40.149Z,83.95
2022-08-16T05:35:40.153Z,83.04
2022-08-16T05:36:40.154Z,82.84
2022-08-16T05:37:40.212Z,82.75
2022-08-16T05:38:40.154Z,82.75
2022-08-16T05:39:40.910Z,82.54
2022-08-16T05:40:40.163Z,83.25
2022-08-16T05:41:45.388Z,82.75
2022-08-16T05:42:40.165Z,83.85
2022-08-16T05:43:43.161Z,83.65
2022-08-16T05:44:40.172Z,83.04
2022-08-16T05:45:40.173Z,83.65
2022-08-16T05:46:43.608Z,82.95
2022-08-16T05:47:43.262Z,83.11
2022-08-16T05:48:40.178Z,83.01
2022-08-16T05:49:40.319Z,82.81
2022-08-16T05:50:41.693Z,83.91
2022-08-16T05:51:41.692Z,82.81
2022-08-16T05:52:40.236Z,83.41
2022-08-16T05:53:40.187Z,83.11
2022-08-16T05:54:46.651Z,83.11
2022-08-16T05:55:40.871Z,83.11
2022-08-16T05:56:40.197Z,83.07
2022-08-16T05:57:40.199Z,82.87
2022-08-16T05:58:40.201Z,82.87
2022-08-16T05:59:40.202Z,83.01
2022-08-16T06:00:40.213Z,82.97
2022-08-16T06:01:40.241Z,82.57
2022-08-16T06:02:40.256Z,82.60
2022-08-16T06:03:40.213Z,82.57
2022-08-16T06:04:42.225Z,82.97
2022-08-16T06:05:41.527Z,82.67
2022-08-16T06:06:40.241Z,83.07
2022-08-16T06:07:40.221Z,82.97
2022-08-16T06:08:42.276Z,82.57
2022-08-16T06:09:43.567Z,82.37
2022-08-16T06:10:40.230Z,82.67
2022-08-16T06:11:40.233Z,82.76
2022-08-16T06:12:40.325Z,82.97
2022-08-16T06:13:42.337Z,82.97
2022-08-16T06:14:40.303Z,82.87
2022-08-16T06:15:41.472Z,82.76
2022-08-16T06:16:40.245Z,83.17
2022-08-16T06:17:42.659Z,82.76
2022-08-16T06:18:40.252Z,82.67
2022-08-16T06:19:44.069Z,82.46
2022-08-16T06:20:51.666Z,82.57
2022-08-16T06:21:40.255Z,82.76
2022-08-16T06:22:40.258Z,82.57
2022-08-16T06:23:40.261Z,82.67
2022-08-16T06:24:54.007Z,82.37
2022-08-16T06:25:40.270Z,82.57
2022-08-16T06:26:44.577Z,82.46
2022-08-16T06:27:40.933Z,83.67
2022-08-16T06:28:40.282Z,82.76
2022-08-16T06:29:40.275Z,82.67
2022-08-16T06:30:43.426Z,82.37
2022-08-16T06:31:46.670Z,82.97
2022-08-16T06:32:40.286Z,82.97
2022-08-16T06:33:41.542Z,82.76
2022-08-16T06:34:55.186Z,82.97
2022-08-16T06:35:41.557Z,82.87
2022-08-16T06:36:40.298Z,83.27
2022-08-16T06:37:40.301Z,82.97
2022-08-16T06:38:55.818Z,83.17
2022-08-16T06:39:49.646Z,83.37
2022-08-16T06:40:40.307Z,83.97
2022-08-16T06:41:40.370Z,83.17
2022-08-16T06:42:47.978Z,83.83
2022-08-16T06:43:40.312Z,83.17
2022-08-16T06:44:40.313Z,83.73
2022-08-16T06:45:43.180Z,82.63
2022-08-16T06:46:40.319Z,82.82
2022-08-16T06:47:53.610Z,82.53
2022-08-16T06:48:43.205Z,83.13
2022-08-16T06:49:40.327Z,82.82
2022-08-16T06:50:40.331Z,82.49
2022-08-16T06:51:46.263Z,82.63
2022-08-16T06:52:59.641Z,82.39
2022-08-16T06:53:40.338Z,82.29
2022-08-16T06:54:40.342Z,82.89
2022-08-16T06:55:40.342Z,82.65
2022-08-16T06:56:40.352Z,82.69
2022-08-16T06:57:40.374Z,83.45
2022-08-16T06:58:40.350Z,82.95
2022-08-16T06:59:52.863Z,82.65
2022-08-16T07:00:43.200Z,82.81
2022-08-16T07:01:46.290Z,82.85
2022-08-16T07:02:51.497Z,82.45
2022-08-16T07:03:55.884Z,82.01
2022-08-16T07:04:40.370Z,82.31
2022-08-16T07:05:41.977Z,82.41
2022-08-16T07:06:40.376Z,82.31
2022-08-16T07:07:40.374Z,81.91
2022-08-16T07:08:40.378Z,82.41
2022-08-16T07:09:40.380Z,81.81
2022-08-16T07:10:41.512Z,82.01
2022-08-16T07:11:46.189Z,82.21
2022-08-16T07:12:47.445Z,81.57
2022-08-16T07:14:00.694Z,81.67
2022-08-16T07:14:40.396Z,81.57
2022-08-16T07:15:49.995Z,80.87
2022-08-16T07:16:40.401Z,81.37
2022-08-16T07:17:40.402Z,82.47
2022-08-16T07:18:40.408Z,82.27
2022-08-16T07:20:30.014Z,81.53
2022-08-16T07:20:48.037Z,80.83
2022-08-16T07:21:46.172Z,80.63
2022-08-16T07:22:40.425Z,80.53
2022-08-16T07:23:40.421Z,80.63
2022-08-16T07:24:45.770Z,80.49
2022-08-16T07:25:40.805Z,80.33
2022-08-16T07:26:40.433Z,81.29
2022-08-16T07:27:40.446Z,81.19
2022-08-16T07:28:40.439Z,81.59
2022-08-16T07:29:40.440Z,79.99
2022-08-16T07:30:46.396Z,79.59
2022-08-16T07:31:40.446Z,79.69
2022-08-16T07:32:40.450Z,79.69
2022-08-16T07:33:53.711Z,80.26
2022-08-16T07:34:48.571Z,79.09
2022-08-16T07:35:44.016Z,79.35
2022-08-16T07:36:40.463Z,78.66
2022-08-16T07:37:40.463Z,77.15
2022-08-16T07:38:40.469Z,76.56
2022-08-16T07:39:43.448Z,76.56
2022-08-16T07:41:00.067Z,77.12
2022-08-16T07:41:40.478Z,78.52
2022-08-16T07:42:40.482Z,78.72
2022-08-16T07:43:41.628Z,78.31
2022-08-16T07:44:48.992Z,78.12
2022-08-16T07:45:42.852Z,78.42
2022-08-16T07:46:40.498Z,78.42
2022-08-16T07:47:42.066Z,76.72
2022-08-16T07:48:40.507Z,76.88
2022-08-16T07:49:53.184Z,77.48
2022-08-16T07:50:56.282Z,78.18
2022-08-16T07:51:40.509Z,78.88
2022-08-16T07:52:40.553Z,78.88
2022-08-16T07:53:43.464Z,78.48
2022-08-16T07:54:46.016Z,76.28
2022-08-16T07:55:48.138Z,76.25
2022-08-16T07:56:40.532Z,75.38
2022-08-16T07:57:58.035Z,74.95
2022-08-16T07:58:40.535Z,75.85
2022-08-16T07:59:42.902Z,76.04
2022-08-16T08:00:40.562Z,76.65
2022-08-16T08:01:40.543Z,76.75
2022-08-16T08:02:40.589Z,76.45
2022-08-16T08:03:43.667Z,75.41
2022-08-16T08:04:40.557Z,74.32
2022-08-16T08:05:40.558Z,74.02
2022-08-16T08:06:40.561Z,74.81
2022-08-16T08:07:40.569Z,75.11
2022-08-16T08:08:51.731Z,75.71
2022-08-16T08:09:43.442Z,76.21
2022-08-16T08:10:40.581Z,75.51
2022-08-16T08:11:40.586Z,76.01
2022-08-16T08:12:40.586Z,76.01
2022-08-16T08:13:42.445Z,76.07
2022-08-16T08:14:40.596Z,76.17
2022-08-16T08:15:40.595Z,74.68
2022-08-16T08:16:45.470Z,75.37
2022-08-16T08:17:43.304Z,74.28
2022-08-16T08:18:40.609Z,74.04
2022-08-16T08:19:40.645Z,74.44
2022-08-16T08:20:40.618Z,75.34
2022-08-16T08:22:00.685Z,75.84
2022-08-16T08:22:40.697Z,75.44
2022-08-16T08:23:42.595Z,73.44
2022-08-16T08:24:44.080Z,73.81
2022-08-16T08:25:55.103Z,73.71
2022-08-16T08:26:40.642Z,71.88
2022-08-16T08:27:40.642Z,71.69
2022-08-16T08:28:40.650Z,71.58
2022-08-16T08:29:40.765Z,72.18
2022-08-16T08:30:50.239Z,72.88
2022-08-16T08:31:40.662Z,72.14
2022-08-16T08:32:57.571Z,71.75
2022-08-16T08:33:43.891Z,71.84
2022-08-16T08:34:40.678Z,70.42
2022-08-16T08:35:40.683Z,69.85
2022-08-16T08:36:40.693Z,69.85
2022-08-16T08:37:53.883Z,69.92
2022-08-16T08:38:44.108Z,70.42
2022-08-16T08:39:54.867Z,71.12
2022-08-16T08:40:40.712Z,71.61
2022-08-16T08:41:40.715Z,70.22
2022-08-16T08:42:40.745Z,69.43
2022-08-16T08:43:41.464Z,70.72
2022-08-16T08:44:40.734Z,72.41
2022-08-16T08:45:48.212Z,71.91
2022-08-16T08:46:40.749Z,71.31
2022-08-16T08:47:40.751Z,71.68
2022-08-16T08:48:43.901Z,70.82
2022-08-16T08:49:50.751Z,70.32
2022-08-16T08:50:40.767Z,70.82
2022-08-16T08:51:41.363Z,72.61
2022-08-16T08:52:40.833Z,72.51
2022-08-16T08:53:40.786Z,72.51
2022-08-16T08:54:40.791Z,72.01
2022-08-16T08:55:40.797Z,70.42
2022-08-16T08:56:45.593Z,71.91
2022-08-16T08:57:41.083Z,71.22
2022-08-16T08:58:40.816Z,71.61
2022-08-16T08:59:41.157Z,72.01
2022-08-16T09:00:51.242Z,72.51
2022-08-16T09:01:42.999Z,71.81
2022-08-16T09:02:40.836Z,71.72
2022-08-16T09:03:40.951Z,70.42
2022-08-16T09:04:40.861Z,70.56
2022-08-16T09:05:40.851Z,72.74
2022-08-16T09:06:43.254Z,73.64
2022-08-16T09:08:00.506Z,73.14
2022-08-16T09:08:40.870Z,71.35
2022-08-16T09:09:41.330Z,70.15
2022-08-16T09:10:41.049Z,70.26
2022-08-16T09:11:41.473Z,72.14
2022-08-16T09:12:40.890Z,71.84
2022-08-16T09:13:48.342Z,71.05
2022-08-16T09:14:51.229Z,71.95
2022-08-16T09:15:40.904Z,73.44
2022-08-16T09:17:01.043Z,73.84
2022-08-16T09:17:51.725Z,73.74
2022-08-16T09:18:40.986Z,74.24
2022-08-16T09:19:41.291Z,74.24
2022-08-16T09:20:59.452Z,74.24
2022-08-16T09:21:40.935Z,73.80
2022-08-16T09:22:40.971Z,73.84
2022-08-16T09:23:40.941Z,74.04
2022-08-16T09:24:52.780Z,71.95
2022-08-16T09:25:40.950Z,72.74
2022-08-16T09:26:45.684Z,72.11
2022-08-16T09:27:56.516Z,70.15
2022-08-16T09:29:15.527Z,70.62
2022-08-16T09:29:44.912Z,69.06
2022-08-16T09:30:43.372Z,69.96
2022-08-16T09:31:41.890Z,70.45
2022-08-16T09:32:41.066Z,69.76
2022-08-16T09:33:40.993Z,70.36
2022-08-16T09:34:40.992Z,71.15
2022-08-16T09:35:42.772Z,72.05
2022-08-16T09:36:46.253Z,72.08
2022-08-16T09:37:41.008Z,72.74
2022-08-16T09:38:41.062Z,71.88
2022-08-16T09:39:42.684Z,71.69
2022-08-16T09:40:43.730Z,71.48
2022-08-16T09:41:41.030Z,71.19
2022-08-16T09:42:55.809Z,70.56
2022-08-16T09:43:59.159Z,72.05
2022-08-16T09:45:11.180Z,73.18
2022-08-16T09:45:41.045Z,73.04
2022-08-16T09:46:48.237Z,71.88
2022-08-16T09:47:56.861Z,72.18
2022-08-16T09:48:44.713Z,71.25
2022-08-16T09:49:41.409Z,71.55
2022-08-16T09:50:41.065Z,73.94
2022-08-16T09:51:41.071Z,73.84
2022-08-16T09:52:44.454Z,73.34
2022-08-16T09:53:41.081Z,72.55
2022-08-16T09:54:44.265Z,71.45
2022-08-16T09:55:44.213Z,70.45
2022-08-16T09:56:52.489Z,73.94
2022-08-16T09:57:41.095Z,72.55
2022-08-16T09:59:05.195Z,71.65
2022-08-16T09:59:42.048Z,73.00
2022-08-16T10:00:44.781Z,72.61
2022-08-16T10:01:43.600Z,72.31
2022-08-16T10:02:44.370Z,73.41
2022-08-16T10:04:02.619Z,73.11
2022-08-16T10:04:53.106Z,74.20
2022-08-16T10:05:41.134Z,71.91
2022-08-16T10:06:46.205Z,71.72
2022-08-16T10:07:45.066Z,72.21
2022-08-16T10:08:52.617Z,71.31
2022-08-16T10:09:45.045Z,68.99
2022-08-16T10:10:41.151Z,70.09
2022-08-16T10:11:50.440Z,70.36
2022-08-16T10:12:42.626Z,68.46
2022-08-16T10:13:41.166Z,68.57
2022-08-16T10:14:45.941Z,69.53
2022-08-16T10:15:41.715Z,68.93
2022-08-16T10:16:41.180Z,68.33
2022-08-16T10:17:41.186Z,69.43
2022-08-16T10:19:02.055Z,69.03
2022-08-16T10:19:41.191Z,68.73
2022-08-16T10:20:41.204Z,68.99
2022-08-16T10:21:41.200Z,70.18
2022-08-16T10:22:41.205Z,68.20
2022-08-16T10:23:41.210Z,68.20
2022-08-16T10:24:55.628Z,68.17
2022-08-16T10:27:18.814Z,66.28
2022-08-16T10:27:20.627Z,68.46
2022-08-16T10:27:56.849Z,68.80
2022-08-16T10:28:42.173Z,67.57
2022-08-16T10:30:01.464Z,66.88
2022-08-16T10:30:41.241Z,66.22
2022-08-16T10:31:46.109Z,66.11
2022-08-16T10:32:41.254Z,65.32
2022-08-16T10:33:41.255Z,66.44
2022-08-16T10:34:41.263Z,66.15
2022-08-16T10:35:46.575Z,65.65
2022-08-16T10:36:41.269Z,67.94
2022-08-16T10:37:41.277Z,65.95
2022-08-16T10:38:42.101Z,66.94
2022-08-16T10:39:42.355Z,67.04
2022-08-16T10:40:41.326Z,67.83
2022-08-16T10:41:41.298Z,68.07
2022-08-16T10:42:41.374Z,66.67
2022-08-16T10:43:41.306Z,66.28
2022-08-16T10:44:42.324Z,67.97
2022-08-16T10:45:42.085Z,67.67
2022-08-16T10:46:42.161Z,68.86
2022-08-16T10:47:41.378Z,69.06
2022-08-16T10:48:41.325Z,68.76
2022-08-16T10:49:41.328Z,70.25
2022-08-16T10:50:41.331Z,69.76
2022-08-16T10:52:03.290Z,69.06
2022-08-16T10:52:41.361Z,70.45
2022-08-16T10:53:41.349Z,69.46
2022-08-16T10:55:45.396Z,69.66
2022-08-16T10:56:51.734Z,67.77
2022-08-16T10:57:41.372Z,67.67
2022-08-16T10:58:41.370Z,67.67
2022-08-16T10:59:50.837Z,66.88
2022-08-16T11:00:41.394Z,67.37
2022-08-16T11:01:44.332Z,67.97
2022-08-16T11:03:37.751Z,65.68
2022-08-16T11:03:42.522Z,65.09
2022-08-16T11:06:41.662Z,67.47
2022-08-16T11:07:43.081Z,67.27
2022-08-16T11:08:45.455Z,68.66
2022-08-16T11:09:44.199Z,68.76
2022-08-16T11:12:41.436Z,68.37
2022-08-16T11:13:58.066Z,68.66
2022-08-16T11:15:11.412Z,67.97
2022-08-16T11:15:41.895Z,65.98
2022-08-16T11:17:11.433Z,64.39
2022-08-16T11:17:44.854Z,63.49
2022-08-16T11:19:04.741Z,63.89
2022-08-16T11:20:48.643Z,63.46
2022-08-16T11:22:47.644Z,64.56
2022-08-16T11:23:58.274Z,64.66
2022-08-16T11:24:44.710Z,64.95
2022-08-16T11:26:07.528Z,65.06
2022-08-16T11:26:41.497Z,63.07
2022-08-16T11:27:41.503Z,64.16
2022-08-16T11:29:41.510Z,65.06
2022-08-16T11:30:41.512Z,67.24
2022-08-16T11:31:43.416Z,64.56
2022-08-16T11:32:41.550Z,63.76
2022-08-16T11:33:56.837Z,64.36
2022-08-16T11:35:05.812Z,65.06
2022-08-16T11:36:21.900Z,64.46
2022-08-16T11:36:59.755Z,62.67
2022-08-16T11:38:51.160Z,64.56
2022-08-16T11:39:41.599Z,64.95
2022-08-16T11:40:44.074Z,63.46
2022-08-16T11:41:43.696Z,64.06
2022-08-16T11:42:41.598Z,64.56
2022-08-16T11:43:41.576Z,64.76
2022-08-16T11:44:52.040Z,64.66
2022-08-16T11:45:42.628Z,63.96
2022-08-16T11:46:45.321Z,65.55
2022-08-16T11:47:41.639Z,65.06
2022-08-16T11:48:41.601Z,64.26
2022-08-16T11:49:41.606Z,63.17
2022-08-16T11:50:41.604Z,64.56
2022-08-16T11:51:41.615Z,65.16
2022-08-16T11:52:46.373Z,65.25
2022-08-16T11:53:41.623Z,64.36
2022-08-16T11:54:41.624Z,66.35
2022-08-16T11:55:43.999Z,65.88
2022-08-16T11:56:53.243Z,66.25
2022-08-16T11:57:41.644Z,64.79
2022-08-16T11:58:41.653Z,65.78
2022-08-16T11:59:41.656Z,66.08
2022-08-16T12:00:50.452Z,66.88
2022-08-16T12:01:44.408Z,64.49
2022-08-16T12:02:45.952Z,65.28
2022-08-16T12:03:42.056Z,64.98
2022-08-16T12:04:41.755Z,65.28
2022-08-16T12:05:41.675Z,64.19
2022-08-16T12:06:41.681Z,64.49
2022-08-16T12:07:41.725Z,66.38
2022-08-16T12:08:41.689Z,65.48
2022-08-16T12:09:43.520Z,65.39
2022-08-16T12:10:43.226Z,64.19
2022-08-16T12:11:41.704Z,64.59
2022-08-16T12:12:41.706Z,63.20
2022-08-16T12:13:41.712Z,62.70
2022-08-16T12:14:41.716Z,62.01
2022-08-16T12:15:41.730Z,62.80
2022-08-16T12:16:48.609Z,62.47
2022-08-16T12:17:41.815Z,62.77
2022-08-16T12:18:41.780Z,60.88
2022-08-16T12:19:41.742Z,61.75
2022-08-16T12:20:41.744Z,60.85
2022-08-16T12:21:58.816Z,62.84
2022-08-16T12:22:41.753Z,59.86
2022-08-16T12:23:41.760Z,60.46
2022-08-16T12:24:41.761Z,62.21
2022-08-16T12:25:42.120Z,60.53
2022-08-16T12:26:41.772Z,60.43
2022-08-16T12:27:41.783Z,57.95
2022-08-16T12:28:55.029Z,58.94
2022-08-16T12:29:41.800Z,60.72
2022-08-16T12:30:41.797Z,60.83
2022-08-16T12:32:00.450Z,58.84
2022-08-16T12:32:42.222Z,60.70
2022-08-16T12:33:42.837Z,60.93
2022-08-16T12:34:50.455Z,60.23
2022-08-16T12:35:41.816Z,60.43
2022-08-16T12:36:41.820Z,60.20
2022-08-16T12:37:41.884Z,59.80
2022-08-16T12:38:46.797Z,60.53
2022-08-16T12:39:50.563Z,62.29
2022-08-16T12:40:42.022Z,60.00
2022-08-16T12:41:45.040Z,60.20
2022-08-16T12:42:52.816Z,60.72
2022-08-16T12:43:45.364Z,63.28
2022-08-16T12:44:41.880Z,62.58
2022-08-16T12:45:43.518Z,61.99
2022-08-16T12:46:41.863Z,61.82
2022-08-16T12:47:41.873Z,62.61
2022-08-16T12:48:42.298Z,63.40
2022-08-16T12:49:42.453Z,63.10
2022-08-16T12:50:41.887Z,62.71
2022-08-16T12:51:58.105Z,62.71
2022-08-16T12:52:52.487Z,62.91
2022-08-16T12:53:41.901Z,63.01
2022-08-16T12:54:41.903Z,62.74
2022-08-16T12:55:43.814Z,62.15
2022-08-16T12:56:41.920Z,62.15
2022-08-16T12:57:41.919Z,60.36
2022-08-16T12:58:50.361Z,61.15
2022-08-16T12:59:41.941Z,60.63
2022-08-16T13:00:41.976Z,62.21
2022-08-16T13:01:41.941Z,62.31
2022-08-16T13:02:41.946Z,62.68